sensor_id;sensor_type;location;lat;lon;timestamp;pressure;altitude;pressure_sealevel;temperature;humidity
23164;BME280;31429;42.674;23.350;2022-07-29T03:00:29;94813.94;;;18.97;100.00
23164;BME280;31429;42.674;23.350;2022-07-29T03:01:31;94861.50;;;19.21;100.00
23164;BME280;31429;42.674;23.350;2022-07-29T03:02:35;94804.03;;;18.78;100.00
23164;BME280;31429;42.674;23.350;2022-07-29T03:03:38;94860.53;;;19.22;100.00
23164;BME280;31429;42.674;23.350;2022-07-29T03:04:40;94862.91;;;19.38;100.00
23164;BME280;31429;42.674;23.350;2022-07-29T03:05:42;94844.22;;;19.33;100.00
23164;BME280;31429;42.674;23.350;2022-07-29T03:06:43;94858.91;;;19.58;100.00
23164;BME280;31429;42.674;23.350;2022-07-29T03:07:47;94860.63;;;19.70;100.00
23164;BME280;31429;42.674;23.350;2022-07-29T03:08:50;94840.03;;;19.56;100.00
23164;BME280;31429;42.674;23.350;2022-07-29T03:09:52;94746.75;;;19.30;100.00
23164;BME280;31429;42.674;23.350;2022-07-29T03:10:53;94867.16;;;19.99;100.00
23164;BME280;31429;42.674;23.350;2022-07-29T03:11:56;94864.94;;;20.05;100.00
23164;BME280;31429;42.674;23.350;2022-07-29T03:12:58;94839.78;;;19.95;100.00
23164;BME280;31429;42.674;23.350;2022-07-29T03:14:00;94860.91;;;20.25;100.00
23164;BME280;31429;42.674;23.350;2022-07-29T03:15:02;94862.47;;;20.15;100.00
23164;BME280;31429;42.674;23.350;2022-07-29T03:16:05;94855.66;;;19.90;100.00
23164;BME280;31429;42.674;23.350;2022-07-29T03:17:06;94870.63;;;19.87;100.00
23164;BME280;31429;42.674;23.350;2022-07-29T03:18:09;94757.13;;;19.07;100.00
23164;BME280;31429;42.674;23.350;2022-07-29T03:19:10;94847.09;;;19.54;100.00
23164;BME280;31429;42.674;23.350;2022-07-29T03:20:11;94858.97;;;19.69;100.00
23164;BME280;31429;42.674;23.350;2022-07-29T03:21:13;94866.09;;;20.01;100.00
23164;BME280;31429;42.674;23.350;2022-07-29T03:22:14;94850.25;;;20.17;100.00
23164;BME280;31429;42.674;23.350;2022-07-29T03:23:18;94860.78;;;20.84;100.00
23164;BME280;31429;42.674;23.350;2022-07-29T03:24:31;94873.09;;;20.82;100.00
23164;BME280;31429;42.674;23.350;2022-07-29T03:25:33;94830.13;;;20.32;100.00
23164;BME280;31429;42.674;23.350;2022-07-29T03:26:33;94872.47;;;20.67;100.00
23164;BME280;31429;42.674;23.350;2022-07-29T03:27:34;94846.06;;;20.38;100.00
23164;BME280;31429;42.674;23.350;2022-07-29T03:28:35;94866.00;;;20.38;100.00
23164;BME280;31429;42.674;23.350;2022-07-29T03:29:35;94771.63;;;19.69;100.00
23164;BME280;31429;42.674;23.350;2022-07-29T03:30:36;94853.13;;;20.25;100.00
23164;BME280;31429;42.674;23.350;2022-07-29T03:31:38;94868.03;;;20.34;100.00
23164;BME280;31429;42.674;23.350;2022-07-29T03:32:41;94874.38;;;20.30;100.00
23164;BME280;31429;42.674;23.350;2022-07-29T03:33:42;94841.81;;;20.02;100.00
23164;BME280;31429;42.674;23.350;2022-07-29T03:34:42;94871.38;;;20.58;100.00
23164;BME280;31429;42.674;23.350;2022-07-29T03:35:43;94867.44;;;20.99;100.00
23164;BME280;31429;42.674;23.350;2022-07-29T03:36:44;94827.50;;;21.00;100.00
23164;BME280;31429;42.674;23.350;2022-07-29T03:37:45;94868.72;;;20.82;100.00
23164;BME280;31429;42.674;23.350;2022-07-29T03:39:06;94861.97;;;20.57;100.00
23164;BME280;31429;42.674;23.350;2022-07-29T03:40:11;94835.94;;;20.12;100.00
23164;BME280;31429;42.674;23.350;2022-07-29T03:41:52;94823.28;;;19.72;100.00
23164;BME280;31429;42.674;23.350;2022-07-29T03:42:54;94846.78;;;19.58;100.00
23164;BME280;31429;42.674;23.350;2022-07-29T03:43:56;94880.28;;;19.85;100.00
23164;BME280;31429;42.674;23.350;2022-07-29T03:45:01;94844.91;;;19.60;100.00
23164;BME280;31429;42.674;23.350;2022-07-29T03:46:04;94830.38;;;19.21;100.00
23164;BME280;31429;42.674;23.350;2022-07-29T03:47:09;94879.72;;;19.32;100.00
23164;BME280;31429;42.674;23.350;2022-07-29T03:48:15;94887.41;;;19.21;100.00
23164;BME280;31429;42.674;23.350;2022-07-29T03:49:16;94878.50;;;19.13;100.00
23164;BME280;31429;42.674;23.350;2022-07-29T03:50:20;94844.94;;;18.86;100.00
23164;BME280;31429;42.674;23.350;2022-07-29T03:51:21;94878.91;;;19.07;100.00
23164;BME280;31429;42.674;23.350;2022-07-29T03:52:22;94874.78;;;18.91;100.00
23164;BME280;31429;42.674;23.350;2022-07-29T03:53:23;94878.81;;;18.83;100.00
23164;BME280;31429;42.674;23.350;2022-07-29T03:54:24;94896.84;;;18.72;100.00
23164;BME280;31429;42.674;23.350;2022-07-29T03:55:25;94885.44;;;18.62;100.00
23164;BME280;31429;42.674;23.350;2022-07-29T03:56:28;94884.31;;;18.66;100.00
23164;BME280;31429;42.674;23.350;2022-07-29T03:57:30;94892.38;;;18.74;100.00
23164;BME280;31429;42.674;23.350;2022-07-29T03:58:31;94725.00;;;17.85;100.00
23164;BME280;31429;42.674;23.350;2022-07-29T03:59:33;94879.63;;;18.71;100.00
23164;BME280;31429;42.674;23.350;2022-07-29T04:00:35;94535.94;;;16.47;100.00
23164;BME280;31429;42.674;23.350;2022-07-29T04:01:37;94885.44;;;18.74;100.00
23164;BME280;31429;42.674;23.350;2022-07-29T04:02:40;94859.53;;;18.62;100.00
23164;BME280;31429;42.674;23.350;2022-07-29T04:03:45;94816.63;;;18.32;100.00
23164;BME280;31429;42.674;23.350;2022-07-29T04:04:46;94864.00;;;18.85;100.00
23164;BME280;31429;42.674;23.350;2022-07-29T04:05:57;94877.28;;;18.80;100.00
23164;BME280;31429;42.674;23.350;2022-07-29T04:06:58;94864.19;;;18.82;100.00
23164;BME280;31429;42.674;23.350;2022-07-29T04:07:59;94852.41;;;18.78;100.00
23164;BME280;31429;42.674;23.350;2022-07-29T04:08:59;94883.56;;;19.02;100.00
23164;BME280;31429;42.674;23.350;2022-07-29T04:10:00;94884.41;;;19.02;100.00
23164;BME280;31429;42.674;23.350;2022-07-29T04:11:01;94861.31;;;18.74;100.00
23164;BME280;31429;42.674;23.350;2022-07-29T04:12:02;94836.34;;;18.73;100.00
23164;BME280;31429;42.674;23.350;2022-07-29T04:13:03;94862.88;;;18.89;100.00
23164;BME280;31429;42.674;23.350;2022-07-29T04:14:04;94858.91;;;19.09;100.00
23164;BME280;31429;42.674;23.350;2022-07-29T04:15:06;94848.59;;;19.32;100.00
23164;BME280;31429;42.674;23.350;2022-07-29T04:16:07;94883.66;;;19.74;100.00
23164;BME280;31429;42.674;23.350;2022-07-29T04:17:07;94855.44;;;19.70;100.00
23164;BME280;31429;42.674;23.350;2022-07-29T04:18:09;94878.22;;;20.48;100.00
23164;BME280;31429;42.674;23.350;2022-07-29T04:19:10;94882.47;;;20.60;100.00
23164;BME280;31429;42.674;23.350;2022-07-29T04:20:11;94820.41;;;20.23;100.00
23164;BME280;31429;42.674;23.350;2022-07-29T04:21:15;94882.22;;;21.20;100.00
23164;BME280;31429;42.674;23.350;2022-07-29T04:22:15;94783.19;;;20.68;100.00
23164;BME280;31429;42.674;23.350;2022-07-29T04:23:16;94823.00;;;21.02;100.00
23164;BME280;31429;42.674;23.350;2022-07-29T04:24:17;94889.09;;;21.22;100.00
23164;BME280;31429;42.674;23.350;2022-07-29T04:25:18;94887.09;;;21.14;100.00
23164;BME280;31429;42.674;23.350;2022-07-29T04:26:19;94814.16;;;20.71;100.00
23164;BME280;31429;42.674;23.350;2022-07-29T04:27:20;94884.50;;;21.14;100.00
23164;BME280;31429;42.674;23.350;2022-07-29T04:28:20;94858.09;;;20.85;100.00
23164;BME280;31429;42.674;23.350;2022-07-29T04:29:21;94892.00;;;20.95;100.00
23164;BME280;31429;42.674;23.350;2022-07-29T04:30:22;94886.09;;;20.93;100.00
23164;BME280;31429;42.674;23.350;2022-07-29T04:31:22;94886.25;;;21.13;100.00
23164;BME280;31429;42.674;23.350;2022-07-29T04:32:23;94889.69;;;21.25;100.00
23164;BME280;31429;42.674;23.350;2022-07-29T04:33:26;94826.53;;;20.90;100.00
23164;BME280;31429;42.674;23.350;2022-07-29T04:34:26;94880.69;;;21.18;100.00
23164;BME280;31429;42.674;23.350;2022-07-29T04:35:27;94853.50;;;21.00;100.00
23164;BME280;31429;42.674;23.350;2022-07-29T04:36:28;94876.75;;;21.01;100.00
23164;BME280;31429;42.674;23.350;2022-07-29T04:37:28;94901.16;;;21.11;100.00
23164;BME280;31429;42.674;23.350;2022-07-29T04:38:29;94904.69;;;21.10;100.00
23164;BME280;31429;42.674;23.350;2022-07-29T04:39:30;94902.94;;;21.11;100.00
23164;BME280;31429;42.674;23.350;2022-07-29T04:40:31;94900.44;;;21.09;100.00
23164;BME280;31429;42.674;23.350;2022-07-29T04:41:33;94856.66;;;20.70;100.00
23164;BME280;31429;42.674;23.350;2022-07-29T04:42:34;94903.06;;;20.75;100.00
23164;BME280;31429;42.674;23.350;2022-07-29T04:43:35;94907.44;;;20.63;100.00
23164;BME280;31429;42.674;23.350;2022-07-29T04:44:36;94851.13;;;20.29;100.00
23164;BME280;31429;42.674;23.350;2022-07-29T04:45:37;94881.59;;;20.38;100.00
23164;BME280;31429;42.674;23.350;2022-07-29T04:46:37;94906.56;;;20.51;100.00
23164;BME280;31429;42.674;23.350;2022-07-29T04:47:38;94856.97;;;20.20;100.00
23164;BME280;31429;42.674;23.350;2022-07-29T04:48:40;94904.06;;;20.50;100.00
23164;BME280;31429;42.674;23.350;2022-07-29T04:49:41;94815.72;;;20.04;100.00
23164;BME280;31429;42.674;23.350;2022-07-29T04:50:42;94900.53;;;20.51;100.00
23164;BME280;31429;42.674;23.350;2022-07-29T04:51:42;94881.88;;;20.46;100.00
23164;BME280;31429;42.674;23.350;2022-07-29T04:52:43;94906.72;;;20.72;100.00
23164;BME280;31429;42.674;23.350;2022-07-29T04:53:43;94880.84;;;20.59;100.00
23164;BME280;31429;42.674;23.350;2022-07-29T04:54:44;94910.41;;;20.92;100.00
23164;BME280;31429;42.674;23.350;2022-07-29T04:55:45;94882.66;;;20.81;100.00
23164;BME280;31429;42.674;23.350;2022-07-29T04:56:45;94620.00;;;19.38;100.00
23164;BME280;31429;42.674;23.350;2022-07-29T04:57:46;94908.59;;;21.27;100.00
23164;BME280;31429;42.674;23.350;2022-07-29T04:58:47;94919.69;;;21.40;100.00
23164;BME280;31429;42.674;23.350;2022-07-29T04:59:48;94885.19;;;21.38;100.00
23164;BME280;31429;42.674;23.350;2022-07-29T05:00:49;94911.88;;;21.51;100.00
23164;BME280;31429;42.674;23.350;2022-07-29T05:01:50;94918.41;;;21.57;100.00
23164;BME280;31429;42.674;23.350;2022-07-29T05:02:51;94918.97;;;21.60;100.00
23164;BME280;31429;42.674;23.350;2022-07-29T05:03:53;94889.78;;;21.46;100.00
23164;BME280;31429;42.674;23.350;2022-07-29T05:04:53;94918.50;;;21.77;100.00
23164;BME280;31429;42.674;23.350;2022-07-29T05:05:54;94907.47;;;21.74;100.00
23164;BME280;31429;42.674;23.350;2022-07-29T05:06:55;94915.31;;;21.85;100.00
23164;BME280;31429;42.674;23.350;2022-07-29T05:07:55;94897.31;;;21.82;100.00
23164;BME280;31429;42.674;23.350;2022-07-29T05:08:56;94861.38;;;21.76;100.00
23164;BME280;31429;42.674;23.350;2022-07-29T05:09:57;94896.84;;;21.88;100.00
23164;BME280;31429;42.674;23.350;2022-07-29T05:10:58;94905.81;;;21.95;100.00
23164;BME280;31429;42.674;23.350;2022-07-29T05:11:59;94918.75;;;22.28;100.00
23164;BME280;31429;42.674;23.350;2022-07-29T05:12:59;94884.91;;;22.17;100.00
23164;BME280;31429;42.674;23.350;2022-07-29T05:14:00;94907.13;;;22.32;100.00
23164;BME280;31429;42.674;23.350;2022-07-29T05:15:01;94907.19;;;22.21;100.00
23164;BME280;31429;42.674;23.350;2022-07-29T05:16:01;94904.72;;;22.09;100.00
23164;BME280;31429;42.674;23.350;2022-07-29T05:17:02;94903.28;;;22.16;100.00
23164;BME280;31429;42.674;23.350;2022-07-29T05:18:03;94875.28;;;21.97;100.00
23164;BME280;31429;42.674;23.350;2022-07-29T05:19:05;94877.06;;;21.97;100.00
23164;BME280;31429;42.674;23.350;2022-07-29T05:20:07;94911.06;;;22.27;100.00
23164;BME280;31429;42.674;23.350;2022-07-29T05:21:07;94890.38;;;22.14;100.00
23164;BME280;31429;42.674;23.350;2022-07-29T05:22:08;94918.13;;;22.36;100.00
23164;BME280;31429;42.674;23.350;2022-07-29T05:23:09;94849.44;;;22.05;100.00
23164;BME280;31429;42.674;23.350;2022-07-29T05:24:13;94913.13;;;22.44;100.00
23164;BME280;31429;42.674;23.350;2022-07-29T05:25:13;94924.25;;;22.46;100.00
23164;BME280;31429;42.674;23.350;2022-07-29T05:26:14;94924.69;;;22.51;100.00
23164;BME280;31429;42.674;23.350;2022-07-29T05:27:15;94924.88;;;22.39;100.00
23164;BME280;31429;42.674;23.350;2022-07-29T05:28:15;94926.50;;;22.40;100.00
23164;BME280;31429;42.674;23.350;2022-07-29T05:29:16;94894.47;;;22.28;100.00
23164;BME280;31429;42.674;23.350;2022-07-29T05:30:17;94930.03;;;22.50;100.00
23164;BME280;31429;42.674;23.350;2022-07-29T05:31:18;94922.38;;;22.69;100.00
23164;BME280;31429;42.674;23.350;2022-07-29T05:32:19;94925.00;;;22.89;100.00
23164;BME280;31429;42.674;23.350;2022-07-29T05:33:19;94906.09;;;22.97;100.00
23164;BME280;31429;42.674;23.350;2022-07-29T05:34:22;94910.78;;;23.24;100.00
23164;BME280;31429;42.674;23.350;2022-07-29T05:35:23;94894.66;;;23.09;100.00
23164;BME280;31429;42.674;23.350;2022-07-29T05:36:23;94920.66;;;23.41;100.00
23164;BME280;31429;42.674;23.350;2022-07-29T05:37:24;94925.53;;;23.34;100.00
23164;BME280;31429;42.674;23.350;2022-07-29T05:38:25;94929.56;;;23.38;100.00
23164;BME280;31429;42.674;23.350;2022-07-29T05:39:25;94893.47;;;23.23;100.00
23164;BME280;31429;42.674;23.350;2022-07-29T05:41:26;94901.66;;;23.39;100.00
23164;BME280;31429;42.674;23.350;2022-07-29T05:42:27;94930.91;;;23.63;100.00
23164;BME280;31429;42.674;23.350;2022-07-29T05:43:29;94898.16;;;23.59;100.00
23164;BME280;31429;42.674;23.350;2022-07-29T05:44:30;94934.50;;;23.72;100.00
23164;BME280;31429;42.674;23.350;2022-07-29T05:45:31;94933.19;;;23.57;100.00
23164;BME280;31429;42.674;23.350;2022-07-29T05:46:31;94930.31;;;23.60;100.00
23164;BME280;31429;42.674;23.350;2022-07-29T05:47:32;94917.13;;;23.52;100.00
23164;BME280;31429;42.674;23.350;2022-07-29T05:48:33;94935.84;;;23.66;100.00
23164;BME280;31429;42.674;23.350;2022-07-29T05:49:35;94920.94;;;23.87;100.00
23164;BME280;31429;42.674;23.350;2022-07-29T05:50:35;94929.22;;;24.02;100.00
23164;BME280;31429;42.674;23.350;2022-07-29T05:51:36;94929.09;;;24.03;100.00
23164;BME280;31429;42.674;23.350;2022-07-29T05:52:37;94927.56;;;24.01;100.00
23164;BME280;31429;42.674;23.350;2022-07-29T05:53:37;94939.78;;;23.91;100.00
23164;BME280;31429;42.674;23.350;2022-07-29T05:54:38;94900.75;;;23.89;100.00
23164;BME280;31429;42.674;23.350;2022-07-29T05:55:39;94930.25;;;24.20;100.00
23164;BME280;31429;42.674;23.350;2022-07-29T05:56:40;94908.69;;;23.88;100.00
23164;BME280;31429;42.674;23.350;2022-07-29T05:57:40;94934.59;;;24.00;100.00
23164;BME280;31429;42.674;23.350;2022-07-29T05:58:41;94939.22;;;23.87;100.00
23164;BME280;31429;42.674;23.350;2022-07-29T05:59:41;94933.31;;;23.85;100.00
23164;BME280;31429;42.674;23.350;2022-07-29T06:00:42;94895.72;;;23.58;100.00
23164;BME280;31429;42.674;23.350;2022-07-29T06:01:43;94939.22;;;23.87;100.00
23164;BME280;31429;42.674;23.350;2022-07-29T06:02:44;94876.59;;;23.57;100.00
23164;BME280;31429;42.674;23.350;2022-07-29T06:03:44;94935.22;;;24.23;100.00
23164;BME280;31429;42.674;23.350;2022-07-29T06:04:47;94929.34;;;24.00;100.00
23164;BME280;31429;42.674;23.350;2022-07-29T06:05:47;94932.94;;;24.09;100.00
23164;BME280;31429;42.674;23.350;2022-07-29T06:06:48;94924.59;;;24.25;100.00
23164;BME280;31429;42.674;23.350;2022-07-29T06:07:48;94940.44;;;24.33;100.00
23164;BME280;31429;42.674;23.350;2022-07-29T06:08:49;94945.38;;;24.36;100.00
23164;BME280;31429;42.674;23.350;2022-07-29T06:09:50;94934.53;;;24.31;100.00
23164;BME280;31429;42.674;23.350;2022-07-29T06:10:50;94942.09;;;24.34;100.00
23164;BME280;31429;42.674;23.350;2022-07-29T06:11:51;94937.97;;;24.50;100.00
23164;BME280;31429;42.674;23.350;2022-07-29T06:12:53;94887.88;;;24.17;100.00
23164;BME280;31429;42.674;23.350;2022-07-29T06:13:53;94883.72;;;24.04;100.00
23164;BME280;31429;42.674;23.350;2022-07-29T06:14:54;94941.56;;;24.59;100.00
23164;BME280;31429;42.674;23.350;2022-07-29T06:15:55;94939.34;;;24.64;100.00
23164;BME280;31429;42.674;23.350;2022-07-29T06:16:55;94926.69;;;24.50;100.00
23164;BME280;31429;42.674;23.350;2022-07-29T06:17:56;94941.69;;;24.57;100.00
23164;BME280;31429;42.674;23.350;2022-07-29T06:18:57;94945.94;;;24.58;100.00
23164;BME280;31429;42.674;23.350;2022-07-29T06:19:59;94939.75;;;24.59;100.00
23164;BME280;31429;42.674;23.350;2022-07-29T06:21:00;94943.19;;;24.79;100.00
23164;BME280;31429;42.674;23.350;2022-07-29T06:22:02;94888.84;;;24.44;100.00
23164;BME280;31429;42.674;23.350;2022-07-29T06:23:02;94923.94;;;24.61;100.00
23164;BME280;31429;42.674;23.350;2022-07-29T06:24:05;94932.88;;;24.68;100.00
23164;BME280;31429;42.674;23.350;2022-07-29T06:25:07;94932.72;;;24.79;100.00
23164;BME280;31429;42.674;23.350;2022-07-29T06:26:08;94906.72;;;24.58;100.00
23164;BME280;31429;42.674;23.350;2022-07-29T06:27:09;94945.97;;;24.97;100.00
23164;BME280;31429;42.674;23.350;2022-07-29T06:28:10;94925.16;;;24.76;100.00
23164;BME280;31429;42.674;23.350;2022-07-29T06:29:10;94942.53;;;24.77;100.00
23164;BME280;31429;42.674;23.350;2022-07-29T06:30:12;94949.25;;;25.08;100.00
23164;BME280;31429;42.674;23.350;2022-07-29T06:31:13;94949.66;;;25.13;100.00
23164;BME280;31429;42.674;23.350;2022-07-29T06:32:13;94949.09;;;25.20;100.00
23164;BME280;31429;42.674;23.350;2022-07-29T06:33:17;94945.50;;;25.21;100.00
23164;BME280;31429;42.674;23.350;2022-07-29T06:34:18;94943.72;;;25.21;100.00
23164;BME280;31429;42.674;23.350;2022-07-29T06:35:21;94946.88;;;25.34;100.00
23164;BME280;31429;42.674;23.350;2022-07-29T06:36:21;94942.16;;;25.38;100.00
23164;BME280;31429;42.674;23.350;2022-07-29T06:37:22;94940.91;;;25.42;100.00
23164;BME280;31429;42.674;23.350;2022-07-29T06:38:23;94937.47;;;25.41;100.00
23164;BME280;31429;42.674;23.350;2022-07-29T06:39:24;94935.13;;;25.38;100.00
23164;BME280;31429;42.674;23.350;2022-07-29T06:40:24;94937.56;;;24.93;100.00
23164;BME280;31429;42.674;23.350;2022-07-29T06:41:46;94941.81;;;25.13;100.00
23164;BME280;31429;42.674;23.350;2022-07-29T06:42:47;94937.19;;;25.35;100.00
23164;BME280;31429;42.674;23.350;2022-07-29T06:43:48;94928.78;;;25.50;100.00
23164;BME280;31429;42.674;23.350;2022-07-29T06:44:49;94926.00;;;25.52;100.00
23164;BME280;31429;42.674;23.350;2022-07-29T06:45:50;94936.34;;;25.53;100.00
23164;BME280;31429;42.674;23.350;2022-07-29T06:46:51;94916.13;;;25.36;100.00
23164;BME280;31429;42.674;23.350;2022-07-29T06:47:52;94934.84;;;25.51;100.00
23164;BME280;31429;42.674;23.350;2022-07-29T06:48:53;94933.47;;;25.37;100.00
23164;BME280;31429;42.674;23.350;2022-07-29T06:49:53;94931.25;;;25.52;100.00
23164;BME280;31429;42.674;23.350;2022-07-29T06:50:55;94937.19;;;25.81;100.00
23164;BME280;31429;42.674;23.350;2022-07-29T06:51:56;94942.81;;;25.86;100.00
23164;BME280;31429;42.674;23.350;2022-07-29T06:52:57;94935.59;;;25.98;100.00
23164;BME280;31429;42.674;23.350;2022-07-29T06:53:57;94931.72;;;26.02;100.00
23164;BME280;31429;42.674;23.350;2022-07-29T06:54:58;94912.88;;;25.89;97.31
23164;BME280;31429;42.674;23.350;2022-07-29T06:56:00;94927.06;;;25.96;98.56
23164;BME280;31429;42.674;23.350;2022-07-29T06:57:01;94940.34;;;25.85;100.00
23164;BME280;31429;42.674;23.350;2022-07-29T06:58:02;94943.09;;;25.83;100.00
23164;BME280;31429;42.674;23.350;2022-07-29T06:59:02;94936.31;;;25.90;100.00
23164;BME280;31429;42.674;23.350;2022-07-29T07:00:04;94942.56;;;26.07;100.00
23164;BME280;31429;42.674;23.350;2022-07-29T07:01:06;94934.63;;;25.99;93.82
23164;BME280;31429;42.674;23.350;2022-07-29T07:02:07;94928.34;;;26.19;100.00
23164;BME280;31429;42.674;23.350;2022-07-29T07:03:07;94899.88;;;26.24;94.79
23164;BME280;31429;42.674;23.350;2022-07-29T07:04:09;94853.75;;;25.86;92.63
23164;BME280;31429;42.674;23.350;2022-07-29T07:05:10;94929.00;;;26.11;91.96
23164;BME280;31429;42.674;23.350;2022-07-29T07:06:12;94923.47;;;26.24;91.95
23164;BME280;31429;42.674;23.350;2022-07-29T07:07:12;94928.47;;;26.17;92.24
23164;BME280;31429;42.674;23.350;2022-07-29T07:08:13;94896.59;;;26.12;93.42
23164;BME280;31429;42.674;23.350;2022-07-29T07:09:14;94924.44;;;26.23;94.48
23164;BME280;31429;42.674;23.350;2022-07-29T07:10:15;94927.06;;;26.41;91.58
23164;BME280;31429;42.674;23.350;2022-07-29T07:11:16;94920.56;;;26.45;90.03
23164;BME280;31429;42.674;23.350;2022-07-29T07:12:16;94920.09;;;26.32;94.62
23164;BME280;31429;42.674;23.350;2022-07-29T07:13:17;94896.03;;;26.18;94.94
23164;BME280;31429;42.674;23.350;2022-07-29T07:14:18;94923.47;;;26.42;92.83
23164;BME280;31429;42.674;23.350;2022-07-29T07:15:18;94913.41;;;26.37;88.37
23164;BME280;31429;42.674;23.350;2022-07-29T07:16:22;94922.78;;;26.40;87.54
23164;BME280;31429;42.674;23.350;2022-07-29T07:17:22;94922.06;;;26.47;87.91
23164;BME280;31429;42.674;23.350;2022-07-29T07:18:23;94924.22;;;26.52;88.96
23164;BME280;31429;42.674;23.350;2022-07-29T07:19:24;94922.72;;;26.67;94.39
23164;BME280;31429;42.674;23.350;2022-07-29T07:20:25;94918.59;;;26.82;85.01
23164;BME280;31429;42.674;23.350;2022-07-29T07:21:27;94926.94;;;26.95;85.36
23164;BME280;31429;42.674;23.350;2022-07-29T07:22:28;94924.81;;;26.99;84.28
23164;BME280;31429;42.674;23.350;2022-07-29T07:23:28;94912.75;;;26.88;85.20
23164;BME280;31429;42.674;23.350;2022-07-29T07:24:29;94905.03;;;26.69;88.49
23164;BME280;31429;42.674;23.350;2022-07-29T07:25:30;94918.59;;;26.82;86.36
23164;BME280;31429;42.674;23.350;2022-07-29T07:26:31;94918.22;;;26.95;82.69
23164;BME280;31429;42.674;23.350;2022-07-29T07:27:32;94919.06;;;26.95;85.07
23164;BME280;31429;42.674;23.350;2022-07-29T07:28:33;94922.25;;;26.71;84.79
23164;BME280;31429;42.674;23.350;2022-07-29T07:29:34;94922.28;;;26.89;82.82
23164;BME280;31429;42.674;23.350;2022-07-29T07:30:34;94927.94;;;27.02;83.11
23164;BME280;31429;42.674;23.350;2022-07-29T07:31:36;94918.38;;;26.75;79.96
23164;BME280;31429;42.674;23.350;2022-07-29T07:32:37;94919.56;;;26.99;94.15
23164;BME280;31429;42.674;23.350;2022-07-29T07:33:37;94911.38;;;27.27;95.21
23164;BME280;31429;42.674;23.350;2022-07-29T07:34:38;94903.38;;;27.55;97.25
23164;BME280;31429;42.674;23.350;2022-07-29T07:35:39;94867.09;;;27.24;83.71
23164;BME280;31429;42.674;23.350;2022-07-29T07:36:41;94896.03;;;27.40;77.45
23164;BME280;31429;42.674;23.350;2022-07-29T07:37:41;94907.13;;;27.26;76.64
23164;BME280;31429;42.674;23.350;2022-07-29T07:38:42;94894.28;;;26.98;77.18
23164;BME280;31429;42.674;23.350;2022-07-29T07:39:43;94915.25;;;27.15;93.60
23164;BME280;31429;42.674;23.350;2022-07-29T07:40:43;94911.72;;;27.24;77.17
23164;BME280;31429;42.674;23.350;2022-07-29T07:41:46;94916.53;;;27.37;79.59
23164;BME280;31429;42.674;23.350;2022-07-29T07:42:47;94858.03;;;26.75;76.50
23164;BME280;31429;42.674;23.350;2022-07-29T07:43:48;94915.09;;;27.17;78.51
23164;BME280;31429;42.674;23.350;2022-07-29T07:44:49;94915.44;;;27.22;79.77
23164;BME280;31429;42.674;23.350;2022-07-29T07:45:49;94889.41;;;27.28;79.16
23164;BME280;31429;42.674;23.350;2022-07-29T07:46:50;94913.34;;;27.51;76.36
23164;BME280;31429;42.674;23.350;2022-07-29T07:47:51;94914.22;;;27.60;76.51
23164;BME280;31429;42.674;23.350;2022-07-29T07:48:51;94910.38;;;27.46;78.22
23164;BME280;31429;42.674;23.350;2022-07-29T07:49:52;94913.53;;;27.50;78.62
23164;BME280;31429;42.674;23.350;2022-07-29T07:50:53;94903.41;;;27.63;81.79
23164;BME280;31429;42.674;23.350;2022-07-29T07:51:55;94916.13;;;27.75;75.79
23164;BME280;31429;42.674;23.350;2022-07-29T07:52:56;94887.97;;;27.60;72.98
23164;BME280;31429;42.674;23.350;2022-07-29T07:53:58;94910.69;;;27.77;75.43
23164;BME280;31429;42.674;23.350;2022-07-29T07:54:59;94916.22;;;27.66;73.95
23164;BME280;31429;42.674;23.350;2022-07-29T07:56:00;94916.72;;;27.35;82.22
23164;BME280;31429;42.674;23.350;2022-07-29T07:57:00;94913.41;;;27.59;76.84
23164;BME280;31429;42.674;23.350;2022-07-29T07:58:01;94916.19;;;27.58;73.31
23164;BME280;31429;42.674;23.350;2022-07-29T07:59:02;94916.53;;;27.63;76.23
23164;BME280;31429;42.674;23.350;2022-07-29T08:00:04;94879.56;;;27.56;72.31
23164;BME280;31429;42.674;23.350;2022-07-29T08:01:05;94909.22;;;27.74;81.20
23164;BME280;31429;42.674;23.350;2022-07-29T08:02:06;94893.06;;;27.61;73.00
23164;BME280;31429;42.674;23.350;2022-07-29T08:03:07;94911.00;;;27.74;73.25
23164;BME280;31429;42.674;23.350;2022-07-29T08:04:08;94926.44;;;27.43;74.06
23164;BME280;31429;42.674;23.350;2022-07-29T08:05:09;94883.78;;;27.41;74.05
23164;BME280;31429;42.674;23.350;2022-07-29T08:06:12;94890.38;;;27.53;70.13
23164;BME280;31429;42.674;23.350;2022-07-29T08:07:14;94915.13;;;27.76;73.82
23164;BME280;31429;42.674;23.350;2022-07-29T08:08:15;94907.38;;;27.67;73.36
23164;BME280;31429;42.674;23.350;2022-07-29T08:09:15;94912.06;;;27.89;79.56
23164;BME280;31429;42.674;23.350;2022-07-29T08:10:18;94886.72;;;27.80;85.76
23164;BME280;31429;42.674;23.350;2022-07-29T08:11:39;94917.06;;;27.66;68.83
23164;BME280;31429;42.674;23.350;2022-07-29T08:12:40;94918.63;;;27.51;72.99
23164;BME280;31429;42.674;23.350;2022-07-29T08:13:40;94912.16;;;27.71;74.05
23164;BME280;31429;42.674;23.350;2022-07-29T08:14:41;94902.22;;;27.99;85.22
23164;BME280;31429;42.674;23.350;2022-07-29T08:15:42;94869.41;;;28.03;74.73
23164;BME280;31429;42.674;23.350;2022-07-29T08:16:43;94916.53;;;28.46;78.30
23164;BME280;31429;42.674;23.350;2022-07-29T08:17:44;94907.63;;;28.47;67.44
23164;BME280;31429;42.674;23.350;2022-07-29T08:18:45;94898.06;;;28.38;64.84
23164;BME280;31429;42.674;23.350;2022-07-29T08:19:46;94905.16;;;28.38;65.05